Time;durP1;ratioP1;P1;durP2;ratioP2;P2;SDS_P1;SDS_P2;PMS_P1;PMS_P2;Temp;Humidity;BMP_temperature;BMP_pressure;BME280_temperature;BME280_humidity;BME280_pressure;Samples;Min_cycle;Max_cycle;Signal;HPM_P1;HPM_P2
2022/01/17 00:00:26;;;;;;;70.92;33.38;;;;;;;0.12;53.75;94317.73;1673671;85;21551;-60
2022/01/17 00:02:53;;;;;;;60.12;29.05;;;;;;;0.10;54.10;94313.30;1667276;84;21104;-58
2022/01/17 00:05:20;;;;;;;53.65;25.17;;;;;;;0.14;54.05;94309.44;1664031;84;21041;-59
2022/01/17 00:07:52;;;;;;;67.87;32.88;;;;;;;0.18;53.85;94314.23;1662312;84;21045;-60
2022/01/17 00:10:21;;;;;;;51.60;25.20;;;;;;;0.13;53.96;94305.19;1656921;84;21107;-57
2022/01/17 00:12:51;;;;;;;48.20;24.30;;;;;;;0.10;53.86;94301.92;1713065;81;21589;-60
2022/01/17 00:15:30;;;;;;;44.08;22.90;;;;;;;0.04;54.05;94302.11;1733965;81;20956;-58
2022/01/17 00:18:08;;;;;;;47.75;26.20;;;;;;;-0.02;54.16;94294.79;1747414;81;21018;-58
2022/01/17 00:20:26;;;;;;;45.90;26.52;;;;;;;-0.15;54.28;94295.04;1729638;81;21831;-57
2022/01/17 00:22:49;;;;;;;58.42;28.85;;;;;;;-0.06;54.37;94289.23;1705377;80;21002;-60
2022/01/17 00:25:18;;;;;;;56.92;26.87;;;;;;;-0.02;54.36;94287.47;1764014;80;21525;-58
2022/01/17 00:27:45;;;;;;;45.55;23.32;;;;;;;0.00;54.10;94279.73;1759325;80;20979;-59
2022/01/17 00:30:12;;;;;;;47.38;24.20;;;;;;;-0.02;54.04;94276.46;1755681;81;21116;-59
2022/01/17 00:32:39;;;;;;;45.20;23.50;;;;;;;-0.03;53.90;94273.57;1753170;81;21071;-58
2022/01/17 00:35:07;;;;;;;56.28;29.23;;;;;;;0.03;54.19;94269.48;1713556;81;21047;-58
2022/01/17 00:37:39;;;;;;;55.65;28.17;;;;;;;0.00;54.12;94260.81;1718946;81;21070;-59
2022/01/17 00:40:11;;;;;;;73.30;33.08;;;;;;;-0.03;54.35;94260.81;1715665;82;21424;-57
2022/01/17 00:42:38;;;;;;;53.87;28.40;;;;;;;-0.02;54.43;94265.84;1708487;81;21135;-59
2022/01/17 00:45:07;;;;;;;54.70;27.73;;;;;;;0.06;54.07;94256.52;1725947;81;21170;-59
2022/01/17 00:47:35;;;;;;;50.60;25.50;;;;;;;0.03;54.37;94266.02;1703334;81;21069;-58
2022/01/17 00:50:03;;;;;;;49.93;26.68;;;;;;;-0.01;54.51;94265.24;1688963;83;21120;-59
2022/01/17 00:52:30;;;;;;;50.08;26.40;;;;;;;-0.01;54.73;94272.78;1700742;82;21073;-60
2022/01/17 00:54:57;;;;;;;40.33;23.77;;;;;;;0.03;54.75;94268.13;1699760;82;21526;-60
2022/01/17 00:57:27;;;;;;;41.73;23.25;;;;;;;0.04;54.67;94268.31;1700671;81;21006;-60
2022/01/17 00:59:54;;;;;;;46.60;25.52;;;;;;;-0.01;54.48;94261.97;1706086;82;20971;-59
2022/01/17 01:02:26;;;;;;;42.53;23.73;;;;;;;-0.04;54.50;94272.03;1677877;83;21027;-59
2022/01/17 01:04:55;;;;;;;41.48;23.30;;;;;;;-0.08;54.02;94272.03;1685748;81;20943;-59
2022/01/17 01:07:22;;;;;;;46.75;25.35;;;;;;;-0.04;54.09;94263.92;1721062;82;21129;-59
2022/01/17 01:10:00;;;;;;;56.02;29.75;;;;;;;0.07;53.97;94277.59;1701664;82;21138;-59
2022/01/17 01:12:17;;;;;;;62.38;31.02;;;;;;;0.21;54.05;94258.61;1693319;82;21583;-59
2022/01/17 01:14:46;;;;;;;49.20;25.52;;;;;;;0.30;53.84;94261.08;1694308;83;20971;-58
2022/01/17 01:17:30;;;;;;;55.10;27.35;;;;;;;0.31;54.04;94257.20;1696804;83;21164;-58
2022/01/17 01:19:42;;;;;;;56.80;31.50;;;;;;;0.26;54.17;94252.19;1693497;82;21086;-57
2022/01/17 01:27:52;;;;;;;81.95;44.95;;;;;;;0.43;53.43;94245.92;1723937;81;21148;-58
2022/01/17 01:30:15;;;;;;;80.38;42.43;;;;;;;0.49;53.42;94240.30;1707567;82;21058;-57
2022/01/17 01:32:51;;;;;;;59.30;33.02;;;;;;;0.53;53.53;94247.81;1713505;81;20994;-61
2022/01/17 01:35:18;;;;;;;72.37;34.63;;;;;;;0.52;53.55;94231.39;1690765;82;21203;-60
2022/01/17 01:37:45;;;;;;;60.05;28.40;;;;;;;0.34;53.94;94232.07;1732121;81;21074;-59
2022/01/17 01:40:16;;;;;;;32.85;17.67;;;;;;;0.19;54.34;94232.55;1707566;81;21517;-59
2022/01/17 01:42:45;;;;;;;40.83;20.75;;;;;;;-0.02;55.50;94221.23;1749562;81;21485;-58
2022/01/17 01:45:13;;;;;;;49.45;25.80;;;;;;;-0.03;55.53;94216.20;1714355;81;22276;-58
2022/01/17 01:47:40;;;;;;;42.25;21.45;;;;;;;-0.04;55.42;94205.80;1710174;82;22198;-59
2022/01/17 01:50:10;;;;;;;16.45;10.35;;;;;;;-0.02;56.34;94198.06;1694053;83;21068;-61
2022/01/17 01:52:41;;;;;;;10.10;8.45;;;;;;;0.12;57.77;94180.62;1690889;84;21091;-62
2022/01/17 01:55:11;;;;;;;11.28;8.20;;;;;;;0.41;59.77;94175.81;1689870;84;21674;-57
2022/01/17 01:57:37;;;;;;;15.45;9.40;;;;;;;0.78;59.62;94176.69;1700257;83;21001;-58
2022/01/17 02:00:06;;;;;;;17.57;8.38;;;;;;;1.09;59.37;94167.53;1674957;83;21086;-58
2022/01/17 02:02:34;;;;;;;10.75;9.18;;;;;;;1.32;59.26;94160.91;1712136;82;21390;-61
2022/01/17 02:05:03;;;;;;;16.00;10.35;;;;;;;1.51;58.68;94159.57;1714006;81;20962;-58
2022/01/17 02:07:30;;;;;;;12.40;9.38;;;;;;;1.61;58.44;94168.94;1730857;82;20994;-58
2022/01/17 02:09:58;;;;;;;16.32;10.43;;;;;;;1.70;58.69;94176.59;1717023;82;20942;-58
2022/01/17 02:12:29;;;;;;;15.68;9.90;;;;;;;1.77;58.93;94173.22;1713146;82;21169;-59
2022/01/17 02:14:56;;;;;;;11.28;8.78;;;;;;;1.83;58.74;94166.95;1703968;83;21006;-57
2022/01/17 02:17:24;;;;;;;11.18;8.35;;;;;;;1.87;58.69;94177.73;1698074;83;20968;-59
2022/01/17 02:20:03;;;;;;;13.80;9.35;;;;;;;1.91;59.13;94176.52;1718886;82;21095;-58
2022/01/17 02:22:23;;;;;;;15.03;8.88;;;;;;;1.96;59.22;94161.75;1698574;81;21085;-57
2022/01/17 02:24:52;;;;;;;10.23;7.95;;;;;;;1.99;59.17;94158.97;1741322;81;21138;-57
2022/01/17 02:27:20;;;;;;;13.13;9.15;;;;;;;1.96;59.19;94154.97;1706153;82;21069;-58
2022/01/17 02:29:47;;;;;;;9.03;7.72;;;;;;;1.94;59.24;94153.25;1695243;81;21069;-59
2022/01/17 02:32:14;;;;;;;11.97;8.20;;;;;;;1.97;59.22;94136.16;1738575;81;21002;-58
2022/01/17 02:34:42;;;;;;;20.95;11.88;;;;;;;2.00;59.07;94143.48;1702825;82;21022;-57
2022/01/17 02:37:10;;;;;;;19.17;11.40;;;;;;;2.02;59.03;94143.84;1748079;81;21116;-59
2022/01/17 02:39:40;;;;;;;18.85;10.08;;;;;;;2.00;59.25;94150.27;1765468;80;20982;-57
2022/01/17 02:42:10;;;;;;;16.37;10.50;;;;;;;1.98;59.35;94144.48;1739748;80;21018;-58
2022/01/17 02:44:44;;;;;;;16.07;10.95;;;;;;;1.97;59.41;94147.02;1755638;80;21002;-59
2022/01/17 02:47:07;;;;;;;13.15;10.08;;;;;;;1.97;59.37;94151.83;1741933;81;21157;-58
2022/01/17 02:49:34;;;;;;;19.90;10.98;;;;;;;1.94;59.56;94148.58;1671093;83;21161;-58
2022/01/17 02:52:00;;;;;;;20.27;11.88;;;;;;;1.91;59.63;94151.33;1671081;84;21515;-59
2022/01/17 02:54:27;;;;;;;17.82;10.63;;;;;;;1.89;59.71;94165.31;1690495;81;21071;-56
2022/01/17 02:56:54;;;;;;;17.02;11.03;;;;;;;1.90;59.70;94168.78;1718472;82;20976;-57
2022/01/17 02:59:21;;;;;;;22.50;12.70;;;;;;;1.91;59.76;94171.09;1686101;82;21070;-58
2022/01/17 03:01:48;;;;;;;19.85;12.73;;;;;;;1.95;59.66;94173.77;1719054;82;21825;-59
2022/01/17 03:04:17;;;;;;;9.13;8.13;;;;;;;1.97;59.40;94161.93;1708267;82;21079;-58
2022/01/17 03:06:44;;;;;;;10.85;7.55;;;;;;;1.95;58.92;94169.10;1698319;82;20986;-57
2022/01/17 03:09:11;;;;;;;11.97;7.90;;;;;;;1.92;58.58;94153.65;1690643;83;21807;-56
2022/01/17 03:11:37;;;;;;;9.03;8.00;;;;;;;1.91;58.29;94144.55;1665732;82;21533;-61
2022/01/17 03:14:06;;;;;;;16.73;11.70;;;;;;;1.88;58.14;94150.22;1702173;81;21124;-58
2022/01/17 03:16:45;;;;;;;12.98;9.85;;;;;;;1.87;58.11;94154.67;1729054;81;21110;-58
2022/01/17 03:19:06;;;;;;;14.45;10.15;;;;;;;1.85;57.99;94152.97;1705225;82;21284;-58
2022/01/17 03:21:36;;;;;;;19.30;12.47;;;;;;;1.86;57.89;94150.44;1733457;81;20999;-58
2022/01/17 03:24:04;;;;;;;15.00;11.65;;;;;;;1.78;57.95;94142.97;1725515;81;21151;-57
2022/01/17 03:26:31;;;;;;;50.35;39.45;;;;;;;1.72;57.92;94141.11;1693700;83;21125;-57
2022/01/17 03:29:00;;;;;;;10.70;9.60;;;;;;;1.65;58.02;94145.27;1702863;82;21024;-58
2022/01/17 03:31:29;;;;;;;9.48;8.58;;;;;;;1.64;58.04;94149.16;1718350;82;21005;-58
2022/01/17 03:33:56;;;;;;;8.70;7.80;;;;;;;1.62;58.10;94131.17;1732276;82;21026;-60
2022/01/17 03:36:23;;;;;;;11.08;8.73;;;;;;;1.57;58.22;94142.47;1738283;81;21087;-61
2022/01/17 03:38:50;;;;;;;6.60;5.90;;;;;;;1.56;58.26;94133.38;1700589;83;21808;-57
2022/01/17 03:41:17;;;;;;;8.65;7.75;;;;;;;1.55;58.17;94131.27;1667067;83;20960;-58
2022/01/17 03:43:46;;;;;;;10.45;7.75;;;;;;;1.58;58.09;94127.74;1697872;83;21424;-60
2022/01/17 03:46:13;;;;;;;14.65;11.28;;;;;;;1.57;58.05;94118.08;1712931;82;21102;-59
2022/01/17 03:48:42;;;;;;;13.70;11.28;;;;;;;1.48;58.10;94112.36;1734271;82;21080;-58
2022/01/17 03:51:09;;;;;;;12.78;11.43;;;;;;;1.39;58.19;94112.09;1714796;81;21228;-58
2022/01/17 03:53:39;;;;;;;7.58;6.87;;;;;;;1.32;58.40;94124.94;1686399;83;21093;-58
2022/01/17 03:56:05;;;;;;;12.37;9.65;;;;;;;1.32;58.45;94133.82;1688584;83;21465;-61
2022/01/17 03:58:33;;;;;;;9.75;8.05;;;;;;;1.30;58.36;94145.65;1711035;83;21028;-61
2022/01/17 04:01:02;;;;;;;7.10;6.45;;;;;;;1.30;58.39;94145.65;1697747;82;21057;-58
2022/01/17 04:03:31;;;;;;;16.67;14.00;;;;;;;1.32;58.31;94156.85;1697605;83;21091;-59
2022/01/17 04:05:58;;;;;;;22.45;18.65;;;;;;;1.33;58.21;94158.98;1698631;81;21102;-58
2022/01/17 04:08:25;;;;;;;15.45;11.93;;;;;;;1.35;58.23;94165.52;1694674;83;21514;-58
2022/01/17 04:10:52;;;;;;;11.93;9.28;;;;;;;1.40;58.13;94146.14;1730379;81;21106;-59
2022/01/17 04:13:18;;;;;;;9.13;7.47;;;;;;;1.42;58.17;94145.72;1720638;81;21097;-58
2022/01/17 04:15:46;;;;;;;14.38;10.18;;;;;;;1.41;58.35;94157.16;1735984;81;21119;-58
2022/01/17 04:18:14;;;;;;;13.98;10.32;;;;;;;1.38;58.65;94161.25;1716056;80;21065;-57
2022/01/17 04:20:41;;;;;;;23.47;15.30;;;;;;;1.33;59.12;94159.74;1736742;81;20996;-58
2022/01/17 04:23:10;;;;;;;20.17;13.75;;;;;;;1.26;59.46;94163.10;1717600;82;21087;-57
2022/01/17 04:25:40;;;;;;;15.68;11.80;;;;;;;1.22;59.67;94164.52;1720843;80;21533;-59
2022/01/17 04:28:08;;;;;;;9.55;8.05;;;;;;;1.18;59.69;94152.92;1714006;81;23163;-58
2022/01/17 04:30:35;;;;;;;9.38;8.48;;;;;;;1.21;59.52;94160.84;1704182;83;20985;-57
2022/01/17 04:33:02;;;;;;;9.95;6.17;;;;;;;1.21;59.56;94155.42;1728896;81;21026;-57
2022/01/17 04:35:30;;;;;;;7.33;6.67;;;;;;;1.24;59.41;94160.81;1711064;82;21016;-57
2022/01/17 04:38:00;;;;;;;7.35;6.65;;;;;;;1.21;59.55;94160.27;1727847;81;21018;-58
2022/01/17 04:40:34;;;;;;;11.80;9.20;;;;;;;1.23;59.73;94156.56;1715118;81;21136;-56
2022/01/17 04:42:56;;;;;;;7.33;6.50;;;;;;;1.26;59.74;94161.17;1728424;81;21011;-58
2022/01/17 04:45:23;;;;;;;8.83;7.72;;;;;;;1.25;59.77;94169.13;1715167;80;21150;-56
2022/01/17 04:47:52;;;;;;;12.53;8.93;;;;;;;1.20;59.85;94161.44;1719786;81;21542;-58
2022/01/17 04:50:23;;;;;;;17.95;12.28;;;;;;;1.13;60.01;94149.30;1709464;82;21056;-57
2022/01/17 04:52:50;;;;;;;17.42;11.83;;;;;;;1.09;60.30;94142.38;1707022;83;21142;-60
2022/01/17 04:55:19;;;;;;;11.15;9.95;;;;;;;1.06;60.31;94139.91;1726174;81;21018;-57
2022/01/17 04:57:46;;;;;;;10.35;9.18;;;;;;;1.06;60.45;94131.00;1724385;81;20954;-58
2022/01/17 05:00:17;;;;;;;11.18;8.88;;;;;;;1.07;60.41;94122.48;1725585;81;21156;-58
2022/01/17 05:02:44;;;;;;;28.65;20.23;;;;;;;1.05;60.44;94113.21;1739416;80;21451;-60
2022/01/17 05:05:11;;;;;;;61.00;35.60;;;;;;;1.05;60.44;94107.80;1691496;83;21150;-59
2022/01/17 05:07:39;;;;;;;28.05;19.50;;;;;;;1.12;60.31;94104.43;1704691;83;21061;-57
2022/01/17 05:10:15;;;;;;;21.05;14.35;;;;;;;1.20;60.08;94097.78;1675614;83;21010;-60
2022/01/17 05:12:44;;;;;;;17.57;12.78;;;;;;;1.26;59.80;94094.81;1735315;81;21000;-59
2022/01/17 05:15:25;;;;;;;60.33;28.12;;;;;;;1.25;59.64;94085.15;1749595;80;21034;-59
2022/01/17 05:17:58;;;;;;;33.63;18.77;;;;;;;1.21;59.65;94078.23;1753524;81;21208;-60
2022/01/17 05:20:15;;;;;;;35.33;19.27;;;;;;;1.19;59.67;94074.59;1733809;81;21018;-60
2022/01/17 05:22:43;;;;;;;24.82;14.43;;;;;;;1.27;59.54;94061.70;1749448;81;20986;-58
2022/01/17 05:25:11;;;;;;;29.18;16.85;;;;;;;1.27;59.27;94063.84;1758243;81;21034;-59
2022/01/17 05:27:39;;;;;;;25.80;16.50;;;;;;;1.21;59.28;94069.53;1759365;80;21473;-58
2022/01/17 05:30:13;;;;;;;23.57;16.27;;;;;;;1.18;59.38;94079.79;1762094;80;21126;-57
2022/01/17 05:32:40;;;;;;;25.50;17.70;;;;;;;1.15;59.37;94094.14;1754200;81;21013;-55
2022/01/17 05:35:08;;;;;;;37.20;25.62;;;;;;;1.20;59.52;94095.65;1763190;81;21140;-60
2022/01/17 05:37:35;;;;;;;33.30;22.42;;;;;;;1.20;59.58;94099.14;1738326;81;22230;-59
2022/01/17 05:40:06;;;;;;;34.40;23.25;;;;;;;1.23;59.65;94087.49;1659904;84;37161;-57
2022/01/17 05:42:36;;;;;;;35.45;25.37;;;;;;;1.27;59.55;94090.14;1685550;83;21739;-57
2022/01/17 05:45:04;;;;;;;49.08;31.17;;;;;;;1.25;59.58;94070.25;1697385;81;21049;-56
2022/01/17 05:47:33;;;;;;;46.90;30.92;;;;;;;1.25;59.76;94070.25;1733635;82;21067;-58
2022/01/17 05:50:03;;;;;;;40.78;26.25;;;;;;;1.37;59.79;94073.02;1710942;81;21143;-62
2022/01/17 05:52:30;;;;;;;38.95;25.40;;;;;;;1.40;59.79;94075.69;1663212;81;21059;-63
2022/01/17 05:54:58;;;;;;;40.52;25.95;;;;;;;1.47;59.65;94076.20;1737401;80;21054;-59
2022/01/17 05:57:25;;;;;;;38.15;23.55;;;;;;;1.55;59.76;94076.28;1721602;82;20975;-60
2022/01/17 05:59:54;;;;;;;51.23;35.10;;;;;;;1.69;59.42;94068.73;1725708;81;21554;-54
2022/01/17 06:02:21;;;;;;;62.35;43.10;;;;;;;1.77;59.17;94070.95;1716782;81;21137;-57
2022/01/17 06:04:49;;;;;;;96.90;61.13;;;;;;;1.83;59.09;94067.98;1735777;81;20958;-57
2022/01/17 06:07:16;;;;;;;106.32;59.27;;;;;;;1.93;59.19;94064.94;1713408;82;21144;-58
2022/01/17 06:09:45;;;;;;;83.52;48.42;;;;;;;2.09;58.94;94070.50;1728435;81;22475;-57
2022/01/17 06:12:12;;;;;;;85.87;50.38;;;;;;;2.16;58.72;94058.95;1729884;81;21719;-56
2022/01/17 06:14:39;;;;;;;83.45;50.15;;;;;;;2.18;58.62;94059.31;1718204;81;21160;-57
2022/01/17 06:17:07;;;;;;;50.17;33.02;;;;;;;2.18;58.63;94071.52;1723449;81;21074;-57
2022/01/17 06:19:37;;;;;;;43.38;28.38;;;;;;;2.21;58.72;94075.38;1733789;81;21159;-59
2022/01/17 06:22:04;;;;;;;47.95;31.15;;;;;;;2.28;58.46;94080.68;1709679;82;21135;-58
2022/01/17 06:24:34;;;;;;;57.60;32.80;;;;;;;2.31;58.22;94080.64;1735770;81;21151;-60
2022/01/17 06:27:02;;;;;;;61.08;30.57;;;;;;;2.32;58.20;94074.03;1707594;81;21030;-62
2022/01/17 06:29:32;;;;;;;51.50;28.23;;;;;;;2.30;58.62;94083.78;1721683;81;21541;-64
2022/01/17 06:32:00;;;;;;;59.20;32.00;;;;;;;2.35;58.60;94088.73;1719061;81;21165;-62
2022/01/17 06:34:27;;;;;;;57.30;32.45;;;;;;;2.35;58.67;94092.20;1707683;81;21032;-64
2022/01/17 06:36:58;;;;;;;55.43;30.12;;;;;;;2.34;58.58;94073.63;1716508;82;21447;-63
2022/01/17 06:39:29;;;;;;;60.10;32.05;;;;;;;2.31;58.58;94058.17;1749146;81;21947;-61
2022/01/17 06:42:00;;;;;;;66.42;37.35;;;;;;;2.29;58.55;94061.29;1727734;81;21141;-66
2022/01/17 06:44:27;;;;;;;144.72;72.05;;;;;;;2.39;58.52;94056.87;1713317;81;21358;-60
2022/01/17 06:46:55;;;;;;;384.98;156.52;;;;;;;2.55;58.36;94057.01;1693786;82;20999;-62
2022/01/17 06:49:22;;;;;;;130.90;66.00;;;;;;;2.64;58.34;94039.58;1726181;81;21058;-64
2022/01/17 06:51:50;;;;;;;184.97;88.62;;;;;;;2.74;58.11;94028.56;1745842;80;21053;-62
2022/01/17 06:54:19;;;;;;;215.70;102.67;;;;;;;2.87;57.83;94019.22;1709312;80;21048;-60
2022/01/17 06:56:45;;;;;;;120.90;64.03;;;;;;;2.98;57.64;94013.77;1722079;80;21148;-61
2022/01/17 06:59:13;;;;;;;108.32;57.93;;;;;;;3.00;57.45;94013.33;1719165;80;21014;-60
2022/01/17 07:01:41;;;;;;;128.40;68.37;;;;;;;2.83;57.74;94009.02;1714452;81;21183;-65
2022/01/17 07:04:08;;;;;;;99.55;56.02;;;;;;;2.78;57.93;93988.53;1723098;80;21090;-59
2022/01/17 07:06:37;;;;;;;94.40;53.58;;;;;;;2.85;57.97;93984.92;1692331;82;21120;-67
2022/01/17 07:09:05;;;;;;;78.30;47.58;;;;;;;2.89;57.87;93978.83;1737785;80;21122;-72
2022/01/17 07:11:38;;;;;;;64.97;38.48;;;;;;;2.93;57.75;93966.72;1742795;80;21031;-62
2022/01/17 07:14:12;;;;;;;67.47;39.95;;;;;;;2.91;57.73;93966.34;1747058;80;21077;-62
2022/01/17 07:16:38;;;;;;;69.45;40.03;;;;;;;2.92;57.75;93961.12;1713007;80;26438;-65
2022/01/17 07:19:09;;;;;;;97.97;51.05;;;;;;;2.94;57.70;93963.40;1728489;80;21083;-63
2022/01/17 07:21:37;;;;;;;71.77;38.67;;;;;;;2.92;57.78;93965.77;1696291;83;21090;-61
2022/01/17 07:24:05;;;;;;;75.10;43.30;;;;;;;2.99;57.68;93975.13;1665617;83;21049;-63
2022/01/17 07:26:32;;;;;;;89.50;47.40;;;;;;;3.06;57.64;93980.45;1670010;84;21178;-69
2022/01/17 07:28:59;;;;;;;40.20;24.80;;;;;;;3.11;57.62;93998.97;1719767;80;21049;-69
2022/01/17 07:31:26;;;;;;;36.35;21.87;;;;;;;3.05;57.22;94020.41;1726955;80;22475;-65
2022/01/17 07:33:52;;;;;;;23.47;15.45;;;;;;;3.09;57.09;94032.58;1731674;80;21207;-62
2022/01/17 07:36:20;;;;;;;23.70;15.08;;;;;;;3.15;56.76;94011.31;1709044;80;21082;-63
2022/01/17 07:38:47;;;;;;;12.33;8.15;;;;;;;3.25;56.29;94010.32;1730213;80;21053;-62
2022/01/17 07:41:20;;;;;;;33.13;19.10;;;;;;;3.24;54.30;93998.53;1717398;80;21112;-65
2022/01/17 07:43:50;;;;;;;19.62;12.75;;;;;;;3.14;54.57;93995.41;1732911;80;21060;-68
2022/01/17 07:46:37;;;;;;;14.35;10.85;;;;;;;3.07;54.35;93972.47;1718594;80;21162;-63
2022/01/17 07:49:03;;;;;;;12.88;10.88;;;;;;;3.01;54.36;93958.59;1710527;82;21041;-63
2022/01/17 07:51:27;;;;;;;23.85;14.80;;;;;;;3.00;54.43;93939.98;1714070;81;22487;-65
2022/01/17 07:53:56;;;;;;;30.08;19.30;;;;;;;2.97;54.42;93920.45;1728415;80;21022;-65
2022/01/17 07:56:25;;;;;;;11.38;9.60;;;;;;;3.02;54.60;93925.42;1725495;80;21105;-65
2022/01/17 07:58:51;;;;;;;10.45;8.95;;;;;;;3.14;54.20;93909.82;1740299;80;21143;-68
2022/01/17 08:01:19;;;;;;;11.65;9.20;;;;;;;3.18;53.76;93888.77;1707722;81;21058;-64
2022/01/17 08:03:47;;;;;;;11.45;8.25;;;;;;;3.12;53.96;93880.95;1713992;80;21509;-65
2022/01/17 08:06:14;;;;;;;13.93;10.63;;;;;;;3.07;54.01;93877.38;1724214;80;21029;-64
2022/01/17 08:08:41;;;;;;;15.78;11.78;;;;;;;2.99;54.14;93883.55;1715239;81;21478;-62
2022/01/17 08:11:08;;;;;;;7.00;6.33;;;;;;;2.92;54.11;93908.16;1725133;80;21111;-70
2022/01/17 08:13:36;;;;;;;12.98;10.00;;;;;;;2.93;53.69;93907.55;1667049;80;22178;-59
2022/01/17 08:16:04;;;;;;;9.65;6.83;;;;;;;2.97;53.42;93910.37;1697658;81;21157;-64
2022/01/17 08:18:31;;;;;;;9.80;8.43;;;;;;;2.98;53.33;93924.13;1716993;80;21128;-68
2022/01/17 08:20:58;;;;;;;8.78;7.10;;;;;;;2.94;53.68;93933.52;1689468;82;21553;-74
2022/01/17 08:23:25;;;;;;;10.28;8.13;;;;;;;2.93;53.55;93960.51;1712751;80;21128;-65
2022/01/17 08:25:54;;;;;;;13.03;8.58;;;;;;;2.88;53.48;93974.58;1686043;81;20943;-71
2022/01/17 08:28:24;;;;;;;12.10;8.43;;;;;;;2.86;53.54;93974.23;1722005;80;21648;-63
2022/01/17 08:30:51;;;;;;;13.68;10.98;;;;;;;2.82;53.48;93953.14;1728256;80;21025;-62
2022/01/17 08:33:21;;;;;;;10.93;9.38;;;;;;;2.87;53.54;93955.39;1715640;80;21019;-67
2022/01/17 08:35:48;;;;;;;9.10;7.83;;;;;;;2.91;53.64;93941.16;1715367;80;21134;-67
2022/01/17 08:38:15;;;;;;;7.17;6.42;;;;;;;2.92;53.39;93917.66;1731511;80;21185;-63
2022/01/17 08:40:42;;;;;;;7.25;6.53;;;;;;;2.93;53.40;93912.40;1706640;80;21065;-68
2022/01/17 08:43:12;;;;;;;8.40;7.33;;;;;;;2.90;53.47;93883.94;1720379;80;21368;-68
2022/01/17 08:45:41;;;;;;;11.53;9.50;;;;;;;2.87;53.52;93887.50;1721095;80;21632;-59
2022/01/17 08:48:12;;;;;;;9.13;6.85;;;;;;;2.89;53.83;93887.84;1729252;80;21095;-69
2022/01/17 08:50:40;;;;;;;10.08;8.68;;;;;;;2.95;53.47;93852.98;1732715;80;21016;-63
2022/01/17 08:53:10;;;;;;;7.10;6.20;;;;;;;2.93;53.56;93847.79;1727135;80;20978;-65
2022/01/17 08:55:37;;;;;;;9.68;7.30;;;;;;;2.91;53.59;93874.61;1719445;81;21141;-66
2022/01/17 08:58:07;;;;;;;9.60;8.10;;;;;;;2.92;53.67;93866.63;1731351;80;21022;-68
2022/01/17 09:00:34;;;;;;;15.90;10.40;;;;;;;2.89;53.76;93841.06;1717714;80;22408;-67
2022/01/17 09:03:04;;;;;;;16.25;10.70;;;;;;;2.86;54.28;93852.02;1709164;80;21615;-60
2022/01/17 09:05:32;;;;;;;9.18;7.58;;;;;;;2.86;54.32;93837.84;1721566;80;21068;-62
2022/01/17 09:08:02;;;;;;;12.00;8.38;;;;;;;2.91;54.19;93833.87;1731506;80;21643;-68
2022/01/17 09:10:30;;;;;;;8.75;7.50;;;;;;;2.90;54.37;93817.41;1730639;80;21097;-62
2022/01/17 09:12:57;;;;;;;9.05;6.67;;;;;;;2.94;54.60;93830.31;1730497;80;21214;-58
2022/01/17 09:15:27;;;;;;;21.85;15.13;;;;;;;2.99;54.44;93805.36;1721680;80;21224;-61
2022/01/17 09:17:54;;;;;;;9.78;7.78;;;;;;;3.01;54.50;93790.76;1723637;80;21140;-64
2022/01/17 09:20:21;;;;;;;7.25;6.55;;;;;;;2.97;54.40;93803.66;1729698;80;21132;-62
2022/01/17 09:22:50;;;;;;;9.13;8.18;;;;;;;2.89;54.54;93800.33;1715693;81;21088;-63
2022/01/17 09:25:17;;;;;;;13.83;9.38;;;;;;;2.86;54.84;93796.35;1700078;81;21171;-64
2022/01/17 09:27:47;;;;;;;11.40;9.10;;;;;;;2.86;54.76;93770.55;1713924;80;20976;-68
2022/01/17 09:30:15;;;;;;;12.75;9.05;;;;;;;2.89;54.74;93786.00;1688883;81;21069;-66
2022/01/17 09:32:42;;;;;;;10.53;9.00;;;;;;;3.01;54.60;93773.09;1707344;80;21055;-63
2022/01/17 09:35:11;;;;;;;11.80;8.33;;;;;;;3.16;54.03;93777.03;1722289;81;21204;-59
2022/01/17 09:37:39;;;;;;;16.27;9.58;;;;;;;3.24;53.71;93766.93;1704073;81;21588;-62
2022/01/17 09:40:09;;;;;;;12.28;9.48;;;;;;;3.29;53.56;93760.23;1715537;81;21438;-63
2022/01/17 09:42:42;;;;;;;13.65;10.63;;;;;;;3.34;53.28;93754.28;1693784;82;21124;-64
2022/01/17 09:45:13;;;;;;;12.82;9.78;;;;;;;3.42;53.55;93746.14;1716705;81;22019;-66
2022/01/17 09:47:41;;;;;;;10.48;8.58;;;;;;;3.49;53.28;93755.63;1729387;80;21073;-68
2022/01/17 09:50:20;;;;;;;8.68;7.33;;;;;;;3.55;52.96;93724.62;1716029;81;21165;-65
2022/01/17 09:52:52;;;;;;;11.83;8.98;;;;;;;3.54;52.68;93723.84;1740130;80;21605;-65
2022/01/17 09:55:24;;;;;;;8.95;7.97;;;;;;;3.48;53.29;93728.89;1738548;80;21086;-69
2022/01/17 09:58:07;;;;;;;9.33;7.95;;;;;;;3.30;53.34;93715.56;1700110;81;21122;-67
2022/01/17 10:00:39;;;;;;;10.95;8.58;;;;;;;3.14;53.83;93700.03;1708625;81;21045;-63
2022/01/17 10:03:10;;;;;;;16.30;11.90;;;;;;;2.97;54.47;93695.02;1726397;80;21919;-72
2022/01/17 10:05:37;;;;;;;11.25;8.85;;;;;;;2.88;55.11;93697.57;1727374;80;21557;-64
2022/01/17 10:08:07;;;;;;;11.30;9.55;;;;;;;2.77;55.43;93683.46;1716925;80;20996;-68
2022/01/17 10:11:01;;;;;;;17.15;11.97;;;;;;;2.66;55.68;93675.56;1712078;81;20995;-68
2022/01/17 10:13:37;;;;;;;13.70;9.65;;;;;;;2.64;56.04;93663.59;1724762;80;21425;-60
2022/01/17 10:16:19;;;;;;;11.50;9.50;;;;;;;2.63;56.29;93655.27;1727995;80;21479;-62
2022/01/17 10:18:55;;;;;;;13.00;9.80;;;;;;;2.69;56.27;93645.46;1719361;80;21393;-68
2022/01/17 10:21:43;;;;;;;14.95;9.85;;;;;;;2.86;55.95;93625.27;1719884;80;21090;-68
2022/01/17 10:35:36;;;;;;;14.78;10.03;;;;;;;3.18;54.86;93606.20;1743690;79;21525;-47
2022/01/17 10:41:09;;;;;;;12.30;9.98;;;;;;;2.89;56.85;93604.05;1680074;82;21784;-66
2022/01/17 10:43:39;;;;;;;12.37;9.43;;;;;;;2.70;57.72;93588.61;1667981;83;21041;-61
2022/01/17 10:46:12;;;;;;;12.95;10.55;;;;;;;2.58;58.34;93593.36;1636798;84;21476;-61
2022/01/17 10:48:43;;;;;;;13.35;10.43;;;;;;;2.49;58.56;93595.91;1660759;84;21022;-65
2022/01/17 10:52:34;;;;;;;11.70;10.50;;;;;;;2.49;58.99;93572.23;1735727;78;26583;-71
2022/01/17 10:55:13;;;;;;;12.37;10.28;;;;;;;2.39;59.13;93575.98;1715300;81;21170;-61
2022/01/17 10:57:43;;;;;;;18.85;12.73;;;;;;;2.35;59.26;93561.71;1705525;81;21386;-67
2022/01/17 11:00:17;;;;;;;15.60;12.00;;;;;;;2.39;59.34;93564.35;1706988;81;21057;-66
2022/01/17 11:06:09;;;;;;;14.17;10.97;;;;;;;2.39;59.84;93554.27;1708897;82;20970;-46
2022/01/17 11:08:38;;;;;;;16.25;13.58;;;;;;;2.52;59.76;93544.85;1657166;84;21085;-50
2022/01/17 11:11:07;;;;;;;15.72;12.40;;;;;;;2.75;59.10;93536.51;1668417;84;21315;-47
2022/01/17 11:13:38;;;;;;;12.75;10.32;;;;;;;3.10;58.15;93551.89;1689424;82;21075;-48
2022/01/17 11:16:10;;;;;;;9.75;8.75;;;;;;;3.37;56.33;93530.56;1727573;81;21921;-49
2022/01/17 11:18:36;;;;;;;9.00;7.22;;;;;;;3.52;54.95;93523.70;1729960;81;21087;-46
2022/01/17 11:21:10;;;;;;;9.53;8.40;;;;;;;3.70;53.39;93510.36;1717944;81;21198;-48
2022/01/17 11:23:34;;;;;;;8.00;7.20;;;;;;;3.83;52.82;93498.91;1730960;81;22003;-49
2022/01/17 11:26:05;;;;;;;16.82;13.88;;;;;;;3.98;52.20;93495.92;1721796;81;20947;-50
2022/01/17 11:28:34;;;;;;;15.75;8.55;;;;;;;4.07;51.90;93503.44;1725731;81;21050;-48
2022/01/17 11:31:04;;;;;;;16.30;9.90;;;;;;;4.09;51.63;93508.59;1739775;81;22185;-49
2022/01/17 11:33:31;;;;;;;10.10;9.00;;;;;;;4.09;51.61;93514.03;1723787;81;21033;-47
2022/01/17 11:35:57;;;;;;;16.45;11.68;;;;;;;4.02;51.67;93507.45;1709296;81;21281;-50
2022/01/17 11:38:37;;;;;;;13.98;10.85;;;;;;;3.86;51.91;93512.99;1685352;83;21011;-48
2022/01/17 11:41:04;;;;;;;15.35;11.38;;;;;;;3.67;52.38;93518.03;1716078;81;21151;-50
2022/01/17 11:43:35;;;;;;;8.75;6.78;;;;;;;3.55;53.21;93510.60;1712980;81;21036;-47
2022/01/17 11:46:21;;;;;;;11.18;8.38;;;;;;;3.41;52.59;93517.66;1715669;82;21061;-47
2022/01/17 11:48:56;;;;;;;6.67;5.95;;;;;;;3.27;52.74;93519.41;1684197;83;21131;-48
2022/01/17 11:51:23;;;;;;;7.37;6.62;;;;;;;3.19;52.00;93515.34;1694180;83;21033;-48
2022/01/17 11:53:54;;;;;;;8.30;5.87;;;;;;;3.14;52.03;93523.45;1698759;82;21122;-47
2022/01/17 11:56:44;;;;;;;8.20;7.30;;;;;;;3.07;51.93;93512.00;1708544;82;21690;-48
2022/01/17 11:59:37;;;;;;;6.72;5.78;;;;;;;2.95;51.91;93503.98;1706336;81;21044;-48
2022/01/17 12:02:32;;;;;;;6.20;5.60;;;;;;;2.80;52.26;93495.25;1701586;82;22069;-48